Time;durP1;ratioP1;P1;durP2;ratioP2;P2;SDS_P1;SDS_P2;PMS_P1;PMS_P2;Temp;Humidity;BMP_temperature;BMP_pressure;BME280_temperature;BME280_humidity;BME280_pressure;Samples;Min_cycle;Max_cycle;Signal;HPM_P1;HPM_P2
2023/04/16 00:01:31;;;;;;;91.43;50.45;;;8.50;99.90;;;;;;5044242;28;20049;-86
2023/04/16 00:03:57;;;;;;;90.30;50.03;;;8.50;99.90;;;;;;5027845;28;20048;-86
2023/04/16 00:06:23;;;;;;;84.55;48.15;;;7.10;99.90;;;;;;5057459;28;20037;-86
2023/04/16 00:08:50;;;;;;;91.55;48.88;;;8.50;99.90;;;;;;5059668;28;20073;-86
2023/04/16 00:11:24;;;;;;;100.88;50.28;;;8.50;99.90;;;;;;5070373;28;20045;-85
2023/04/16 00:13:50;;;;;;;93.13;48.67;;;8.70;99.90;;;;;;5049178;28;20040;-86
2023/04/16 00:16:16;;;;;;;89.63;47.83;;;8.60;99.90;;;;;;5067845;28;20124;-86
2023/04/16 00:18:49;;;;;;;97.00;48.40;;;7.40;99.90;;;;;;5055787;28;20136;-87
2023/04/16 00:21:18;;;;;;;89.35;48.80;;;9.20;99.90;;;;;;5048669;28;20042;-87
2023/04/16 00:23:45;;;;;;;84.80;48.47;;;9.60;99.90;;;;;;5069134;28;20040;-86
2023/04/16 00:26:11;;;;;;;91.47;49.67;;;8.40;99.90;;;;;;5067548;28;20507;-87
2023/04/16 00:28:37;;;;;;;92.20;49.63;;;7.90;99.90;;;;;;5056256;28;20044;-87
2023/04/16 00:31:09;;;;;;;90.32;49.58;;;8.60;99.90;;;;;;5052496;28;20029;-87
2023/04/16 00:33:37;;;;;;;93.85;48.53;;;8.10;99.90;;;;;;5070758;28;20051;-87
2023/04/16 00:36:10;;;;;;;94.25;50.75;;;8.40;99.90;;;;;;5040002;28;20045;-87
2023/04/16 00:38:36;;;;;;;92.70;49.90;;;8.50;99.90;;;;;;5074311;28;20049;-86
2023/04/16 00:41:02;;;;;;;93.45;50.38;;;9.30;99.90;;;;;;5054853;28;20392;-87
2023/04/16 00:43:33;;;;;;;93.53;49.60;;;8.50;99.90;;;;;;5039707;28;20053;-87
2023/04/16 00:45:59;;;;;;;90.22;49.75;;;7.40;99.90;;;;;;5073997;28;20021;-86
2023/04/16 00:48:39;;;;;;;90.15;50.03;;;8.50;99.90;;;;;;5036882;28;20049;-87
2023/04/16 00:51:08;;;;;;;88.75;49.45;;;8.40;99.90;;;;;;5070337;28;20045;-86
2023/04/16 00:53:35;;;;;;;96.35;51.10;;;8.40;99.90;;;;;;5070315;28;20133;-87
2023/04/16 00:56:06;;;;;;;95.30;51.25;;;9.90;99.90;;;;;;5072093;28;20075;-87
2023/04/16 00:58:42;;;;;;;91.90;50.30;;;8.40;99.90;;;;;;5056843;28;20111;-87
2023/04/16 01:01:08;;;;;;;93.05;49.58;;;8.00;99.90;;;;;;5076069;28;20630;-87
2023/04/16 01:03:44;;;;;;;91.22;49.30;;;8.40;99.90;;;;;;5068085;28;20167;-86
2023/04/16 01:06:11;;;;;;;86.75;49.03;;;8.30;99.90;;;;;;5067861;28;20107;-87
2023/04/16 01:08:40;;;;;;;85.43;47.97;;;7.70;99.90;;;;;;5074969;28;20041;-86
2023/04/16 01:11:09;;;;;;;93.90;49.03;;;7.90;99.90;;;;;;5071784;28;20069;-86
2023/04/16 01:13:38;;;;;;;86.68;48.90;;;8.50;99.90;;;;;;5054354;28;20041;-86
2023/04/16 01:16:35;;;;;;;84.35;48.53;;;8.20;99.90;;;;;;5053276;28;20082;-87
2023/04/16 01:19:09;;;;;;;85.40;48.10;;;6.80;99.90;;;;;;5073325;28;20053;-87
2023/04/16 01:21:38;;;;;;;86.83;47.00;;;8.30;99.90;;;;;;5057192;28;20071;-87
2023/04/16 01:24:04;;;;;;;92.60;48.28;;;8.20;99.90;;;;;;5038760;28;20049;-87
2023/04/16 01:26:33;;;;;;;90.47;49.55;;;8.30;99.90;;;;;;5031504;28;20438;-85
2023/04/16 01:28:59;;;;;;;89.78;50.22;;;8.40;99.90;;;;;;5068634;28;20055;-88
2023/04/16 01:31:28;;;;;;;93.32;49.22;;;8.20;99.90;;;;;;5038047;28;20045;-87
2023/04/16 01:34:00;;;;;;;96.35;49.70;;;8.20;99.90;;;;;;5085796;28;20276;-87
2023/04/16 01:36:57;;;;;;;87.75;48.85;;;8.90;99.90;;;;;;5059587;28;20055;-87
2023/04/16 01:39:33;;;;;;;88.30;48.85;;;9.90;99.90;;;;;;5044183;28;20045;-86
2023/04/16 01:41:59;;;;;;;95.72;48.80;;;8.20;99.90;;;;;;5063927;28;20064;-86
2023/04/16 01:44:37;;;;;;;95.65;49.80;;;8.20;99.90;;;;;;5068593;28;20045;-86
2023/04/16 01:47:03;;;;;;;88.15;49.75;;;8.20;99.90;;;;;;5075133;28;20123;-88
2023/04/16 01:49:35;;;;;;;97.57;51.17;;;8.20;99.90;;;;;;5086131;28;20045;-86
2023/04/16 01:52:01;;;;;;;98.28;50.78;;;8.40;99.90;;;;;;5040080;28;20052;-86
2023/04/16 01:54:30;;;;;;;91.82;52.00;;;8.00;99.90;;;;;;5055343;28;20041;-86
2023/04/16 01:56:56;;;;;;;90.20;50.72;;;6.80;99.90;;;;;;5068973;28;20110;-87
2023/04/16 01:59:21;;;;;;;86.97;49.65;;;8.00;99.90;;;;;;5046905;28;20053;-87
2023/04/16 02:01:47;;;;;;;100.70;52.47;;;6.90;99.90;;;;;;5024045;28;20052;-86
2023/04/16 02:04:13;;;;;;;88.28;50.28;;;8.00;99.90;;;;;;5054025;28;20049;-86
2023/04/16 02:06:39;;;;;;;92.85;51.30;;;8.00;99.90;;;;;;5036896;28;20141;-86
2023/04/16 02:09:05;;;;;;;89.22;50.22;;;8.00;99.90;;;;;;5037495;28;20049;-85
2023/04/16 02:11:31;;;;;;;91.05;51.20;;;8.00;99.90;;;;;;5036295;28;20059;-85
2023/04/16 02:13:57;;;;;;;85.93;50.95;;;8.00;99.90;;;;;;5036761;28;20041;-84
2023/04/16 02:16:23;;;;;;;90.82;51.58;;;8.50;99.90;;;;;;5036958;28;20088;-85
2023/04/16 02:18:49;;;;;;;89.53;50.53;;;8.00;99.90;;;;;;5055954;28;20438;-84
2023/04/16 02:21:15;;;;;;;87.40;52.15;;;8.00;99.90;;;;;;5037034;28;20048;-85
2023/04/16 02:23:40;;;;;;;96.43;53.15;;;8.00;99.90;;;;;;5054863;28;20071;-86
2023/04/16 02:26:06;;;;;;;94.90;51.80;;;8.00;99.90;;;;;;5041419;28;20045;-86
2023/04/16 02:28:32;;;;;;;95.53;52.28;;;8.00;99.90;;;;;;5054880;28;20547;-84
2023/04/16 02:30:58;;;;;;;87.43;51.53;;;7.90;99.90;;;;;;5055546;28;20057;-86
2023/04/16 02:33:32;;;;;;;89.63;52.22;;;7.90;99.90;;;;;;5053305;28;20071;-85
2023/04/16 02:35:58;;;;;;;90.22;52.28;;;7.40;99.90;;;;;;5062765;28;20110;-86
2023/04/16 02:38:23;;;;;;;94.57;52.80;;;7.90;99.90;;;;;;5064680;28;20041;-86
2023/04/16 02:40:49;;;;;;;96.50;52.95;;;7.70;99.90;;;;;;5049583;28;20056;-87
2023/04/16 02:43:24;;;;;;;102.18;53.53;;;7.90;99.90;;;;;;5050241;28;20029;-86
2023/04/16 02:45:58;;;;;;;107.50;55.17;;;7.30;99.90;;;;;;5056120;28;20037;-85
2023/04/16 02:48:37;;;;;;;100.10;55.00;;;6.90;99.90;;;;;;5073704;28;20083;-86
2023/04/16 02:51:11;;;;;;;111.15;55.58;;;7.00;99.90;;;;;;5056476;28;20091;-86
2023/04/16 02:53:37;;;;;;;101.03;54.28;;;7.80;99.90;;;;;;5057786;28;20053;-85
2023/04/16 02:56:06;;;;;;;102.85;53.83;;;7.90;99.90;;;;;;5058098;28;20131;-86
2023/04/16 02:58:49;;;;;;;105.90;53.15;;;6.90;99.90;;;;;;5055307;28;20139;-87
2023/04/16 03:01:15;;;;;;;104.78;54.95;;;7.70;99.90;;;;;;5048651;28;20045;-86
2023/04/16 03:03:41;;;;;;;105.38;54.72;;;7.80;99.90;;;;;;5023678;28;20051;-85
2023/04/16 03:06:19;;;;;;;;;;;;;;;;;;;;;
2023/04/16 03:08:45;;;;;;;103.35;56.05;;;7.80;99.90;;;;;;5064620;28;20508;-85
2023/04/16 03:11:23;;;;;;;103.50;54.70;;;7.70;99.90;;;;;;5050604;28;20053;-87
2023/04/16 03:13:49;;;;;;;104.75;55.35;;;6.30;99.90;;;;;;5050856;28;20495;-86
2023/04/16 03:16:18;;;;;;;103.80;54.42;;;7.70;99.90;;;;;;5064545;28;20049;-86
2023/04/16 03:18:44;;;;;;;103.22;54.40;;;7.80;99.90;;;;;;5050226;28;20068;-86
2023/04/16 03:21:10;;;;;;;109.53;54.25;;;7.90;99.90;;;;;;5027590;28;20045;-85
2023/04/16 03:23:36;;;;;;;97.72;51.28;;;7.70;99.90;;;;;;5060432;28;20400;-86
2023/04/16 03:26:05;;;;;;;102.63;52.72;;;8.70;99.90;;;;;;5066569;28;20045;-85
2023/04/16 03:28:40;;;;;;;105.10;54.25;;;7.70;99.90;;;;;;5047805;28;20045;-85
2023/04/16 03:31:06;;;;;;;113.82;55.42;;;7.70;99.90;;;;;;5058317;28;20048;-85
2023/04/16 03:33:35;;;;;;;105.50;54.15;;;7.00;99.90;;;;;;5049805;28;20098;-86
2023/04/16 03:36:02;;;;;;;112.78;54.28;;;7.30;99.90;;;;;;5054303;28;20033;-86
2023/04/16 03:38:28;;;;;;;106.93;54.90;;;7.70;99.90;;;;;;5040208;28;20078;-85
2023/04/16 03:40:53;;;;;;;107.32;53.65;;;7.60;99.90;;;;;;5053510;28;20049;-84
2023/04/16 03:43:23;;;;;;;102.75;53.33;;;7.80;99.90;;;;;;5039384;28;20122;-84
2023/04/16 03:45:48;;;;;;;111.97;54.38;;;7.70;99.90;;;;;;5043675;28;20480;-85
2023/04/16 03:48:14;;;;;;;113.05;54.95;;;7.60;99.90;;;;;;5041054;28;20048;-84
2023/04/16 03:50:45;;;;;;;123.90;58.13;;;7.60;99.90;;;;;;5065096;28;20041;-85
2023/04/16 03:53:11;;;;;;;106.40;54.58;;;7.20;99.90;;;;;;5051720;28;20095;-85
2023/04/16 03:55:37;;;;;;;116.70;56.63;;;7.70;99.90;;;;;;5041605;28;20047;-85
2023/04/16 03:58:03;;;;;;;115.25;55.25;;;7.70;99.90;;;;;;5063892;28;20059;-84
2023/04/16 04:00:30;;;;;;;115.25;56.08;;;7.70;99.90;;;;;;5043893;28;20096;-84
2023/04/16 04:02:56;;;;;;;114.43;55.95;;;7.70;99.90;;;;;;5040719;28;20048;-84
2023/04/16 04:05:21;;;;;;;113.88;56.88;;;7.70;99.90;;;;;;5060348;28;20044;-85
2023/04/16 04:07:48;;;;;;;116.03;56.72;;;7.70;99.90;;;;;;5044112;28;20072;-84
2023/04/16 04:10:14;;;;;;;120.85;56.70;;;7.70;99.90;;;;;;5056532;28;20048;-84
2023/04/16 04:12:40;;;;;;;125.05;56.45;;;7.70;99.90;;;;;;5042648;28;20045;-85
2023/04/16 04:15:06;;;;;;;124.97;54.67;;;6.20;99.90;;;;;;5043963;28;20041;-84
2023/04/16 04:17:32;;;;;;;117.75;54.90;;;7.60;99.90;;;;;;5057095;28;20104;-84
2023/04/16 04:20:01;;;;;;;131.32;55.65;;;7.60;99.90;;;;;;5058190;28;20055;-83
2023/04/16 04:22:27;;;;;;;134.60;55.17;;;7.70;99.90;;;;;;5057369;28;20527;-84
2023/04/16 04:24:52;;;;;;;128.50;55.30;;;7.60;99.90;;;;;;5055357;28;20080;-84
2023/04/16 04:27:21;;;;;;;128.77;53.78;;;7.60;99.90;;;;;;5038415;28;20060;-84
2023/04/16 04:29:47;;;;;;;104.85;53.15;;;7.70;99.90;;;;;;5038533;28;20048;-84
2023/04/16 04:32:12;;;;;;;126.03;55.20;;;7.60;99.90;;;;;;5038370;28;20392;-85
2023/04/16 04:34:38;;;;;;;111.70;51.38;;;7.60;99.90;;;;;;5022608;28;20060;-84
2023/04/16 04:37:04;;;;;;;124.75;52.83;;;7.60;99.90;;;;;;5022371;28;20045;-84
2023/04/16 04:39:30;;;;;;;131.02;53.63;;;7.60;99.90;;;;;;5055346;28;20045;-85
2023/04/16 04:41:56;;;;;;;141.73;54.97;;;7.60;99.90;;;;;;5038600;28;20053;-85
2023/04/16 04:44:22;;;;;;;110.78;53.47;;;7.60;99.90;;;;;;5054977;28;20090;-85
2023/04/16 04:46:48;;;;;;;115.18;53.28;;;7.70;99.90;;;;;;5038790;28;20061;-85
2023/04/16 04:49:16;;;;;;;125.28;53.22;;;7.80;99.90;;;;;;5038179;28;20091;-84
2023/04/16 04:51:42;;;;;;;114.18;52.88;;;6.20;99.90;;;;;;5038269;28;20374;-84
2023/04/16 04:54:08;;;;;;;118.03;52.78;;;7.60;99.90;;;;;;5037671;28;20071;-85
2023/04/16 04:56:34;;;;;;;108.45;52.42;;;7.60;99.90;;;;;;5054912;28;20118;-84
2023/04/16 04:59:00;;;;;;;113.50;53.22;;;7.60;99.90;;;;;;5021508;28;20052;-84
2023/04/16 05:01:25;;;;;;;103.63;52.65;;;7.60;99.90;;;;;;5054614;28;20095;-84
2023/04/16 05:03:51;;;;;;;103.05;51.80;;;7.60;99.90;;;;;;5038334;28;20121;-84
2023/04/16 05:06:17;;;;;;;100.72;52.65;;;7.70;99.90;;;;;;5038653;28;20048;-85
2023/04/16 05:08:43;;;;;;;117.20;53.42;;;7.60;99.90;;;;;;5038560;28;20048;-83
2023/04/16 05:11:08;;;;;;;99.05;51.80;;;7.70;99.90;;;;;;5054396;28;20053;-85
2023/04/16 05:13:34;;;;;;;98.15;51.40;;;7.60;99.90;;;;;;5037468;28;20045;-84
2023/04/16 05:16:00;;;;;;;92.45;49.95;;;7.60;99.90;;;;;;5053790;28;20049;-84
2023/04/16 05:18:25;;;;;;;100.30;51.85;;;7.70;99.90;;;;;;5038926;28;20051;-84
2023/04/16 05:20:51;;;;;;;105.93;53.42;;;7.70;99.90;;;;;;5038160;28;20049;-85
2023/04/16 05:23:17;;;;;;;106.13;52.95;;;7.70;99.90;;;;;;5038640;28;20412;-84
2023/04/16 05:25:42;;;;;;;119.60;53.78;;;7.70;99.90;;;;;;5037832;28;20114;-84
2023/04/16 05:28:13;;;;;;;113.60;54.15;;;7.70;99.90;;;;;;5037496;28;20084;-84
2023/04/16 05:30:38;;;;;;;102.32;54.22;;;7.70;99.90;;;;;;5037701;28;20052;-85
2023/04/16 05:33:04;;;;;;;104.88;52.35;;;7.70;99.90;;;;;;5054334;28;20040;-84
2023/04/16 05:35:30;;;;;;;100.82;51.35;;;7.70;99.90;;;;;;5053906;28;20044;-84
2023/04/16 05:37:56;;;;;;;103.25;51.78;;;7.70;99.90;;;;;;5053541;28;20060;-84
2023/04/16 05:40:21;;;;;;;101.97;52.20;;;7.70;99.90;;;;;;5037407;28;20480;-85
2023/04/16 05:42:47;;;;;;;99.22;51.72;;;7.70;99.90;;;;;;5036632;28;20082;-85
2023/04/16 05:45:13;;;;;;;101.18;51.80;;;7.70;99.90;;;;;;5020598;28;20048;-84
2023/04/16 05:47:38;;;;;;;101.22;52.20;;;7.80;99.90;;;;;;5036951;28;20052;-85
2023/04/16 05:50:05;;;;;;;88.93;48.65;;;7.80;99.90;;;;;;5053084;28;20045;-84
2023/04/16 05:52:30;;;;;;;92.95;49.75;;;7.80;99.90;;;;;;5020421;28;20052;-85
2023/04/16 05:55:00;;;;;;;87.00;47.38;;;7.80;99.90;;;;;;5053903;28;20127;-85
2023/04/16 05:57:27;;;;;;;82.63;47.03;;;7.90;99.90;;;;;;5037881;28;20049;-86
2023/04/16 05:59:52;;;;;;;80.32;44.67;;;7.90;99.90;;;;;;5054531;28;20076;-84
2023/04/16 06:02:19;;;;;;;82.32;45.85;;;7.90;99.90;;;;;;5054177;28;20041;-85
2023/04/16 06:04:45;;;;;;;79.20;45.55;;;8.00;99.90;;;;;;5038100;28;20384;-85
2023/04/16 06:07:11;;;;;;;90.80;48.30;;;8.00;99.90;;;;;;5057712;28;20128;-85
2023/04/16 06:09:37;;;;;;;75.15;45.20;;;8.00;99.90;;;;;;5056778;28;20052;-85
2023/04/16 06:12:03;;;;;;;80.57;45.03;;;8.00;99.90;;;;;;5039549;28;20041;-85
2023/04/16 06:14:29;;;;;;;72.40;43.60;;;8.00;99.90;;;;;;5055290;28;20106;-85
2023/04/16 06:16:55;;;;;;;72.65;43.88;;;8.10;99.90;;;;;;5036926;28;20061;-85
2023/04/16 06:19:20;;;;;;;77.65;44.30;;;8.10;99.90;;;;;;5054167;28;20534;-84
2023/04/16 06:21:46;;;;;;;71.60;43.00;;;8.10;99.90;;;;;;5054905;28;20048;-85
2023/04/16 06:24:12;;;;;;;68.55;41.47;;;8.20;99.90;;;;;;5053331;28;20051;-85
2023/04/16 06:26:38;;;;;;;66.13;41.20;;;8.20;99.90;;;;;;5037003;28;20404;-86
2023/04/16 06:29:04;;;;;;;73.78;43.42;;;8.20;99.90;;;;;;5037812;28;20048;-85
2023/04/16 06:31:30;;;;;;;72.18;43.35;;;8.20;99.90;;;;;;5037248;28;20056;-85
2023/04/16 06:33:55;;;;;;;71.90;42.65;;;8.30;99.90;;;;;;5054344;28;20037;-85
2023/04/16 06:36:21;;;;;;;69.45;42.15;;;8.30;99.90;;;;;;5039356;28;20049;-85
2023/04/16 06:38:47;;;;;;;69.75;42.05;;;8.30;99.90;;;;;;5061217;28;20137;-85
2023/04/16 06:41:13;;;;;;;73.43;43.65;;;8.40;99.90;;;;;;5040058;28;20048;-85
2023/04/16 06:43:40;;;;;;;68.65;41.55;;;8.50;99.90;;;;;;5056974;28;20049;-85
2023/04/16 06:46:05;;;;;;;70.57;42.05;;;8.50;99.90;;;;;;5054488;28;20037;-84
2023/04/16 06:48:31;;;;;;;69.35;41.53;;;8.50;99.90;;;;;;5037414;28;20049;-85
2023/04/16 06:50:57;;;;;;;67.88;39.92;;;8.50;99.90;;;;;;5038089;28;20055;-85
2023/04/16 06:53:23;;;;;;;71.07;41.65;;;8.60;99.90;;;;;;5038810;28;20041;-84
2023/04/16 06:55:49;;;;;;;62.42;39.72;;;8.60;99.90;;;;;;5053955;28;20471;-85
2023/04/16 06:58:14;;;;;;;63.13;39.70;;;8.60;99.90;;;;;;5055522;28;20049;-85
2023/04/16 07:00:40;;;;;;;64.00;39.75;;;8.70;99.90;;;;;;5038901;28;20127;-85
2023/04/16 07:03:06;;;;;;;60.75;38.78;;;8.70;99.90;;;;;;5057111;28;20049;-84
2023/04/16 07:05:31;;;;;;;59.88;38.83;;;8.70;99.90;;;;;;5053669;28;20532;-85
2023/04/16 07:07:58;;;;;;;59.03;37.67;;;8.70;99.90;;;;;;5038460;28;20049;-85
2023/04/16 07:10:24;;;;;;;66.65;39.20;;;8.70;99.90;;;;;;5055033;28;20052;-85
2023/04/16 07:12:50;;;;;;;59.95;38.65;;;8.70;99.90;;;;;;5053626;28;20045;-84
2023/04/16 07:15:16;;;;;;;58.60;37.80;;;8.70;99.90;;;;;;5035652;28;20130;-84
2023/04/16 07:17:41;;;;;;;59.78;37.50;;;8.70;99.90;;;;;;5037415;28;20068;-85
2023/04/16 07:20:08;;;;;;;58.63;37.88;;;8.70;99.90;;;;;;5039895;28;20481;-84
2023/04/16 07:22:34;;;;;;;54.58;36.70;;;8.60;99.90;;;;;;5055938;28;20049;-84
2023/04/16 07:24:59;;;;;;;56.17;37.38;;;8.60;99.90;;;;;;5039628;28;20114;-84
2023/04/16 07:27:26;;;;;;;61.50;38.08;;;8.60;99.90;;;;;;5039118;28;20044;-85
2023/04/16 07:29:51;;;;;;;56.28;37.17;;;8.70;99.90;;;;;;5039731;28;20052;-84
2023/04/16 07:32:17;;;;;;;57.55;36.95;;;8.60;99.90;;;;;;5056359;28;20396;-84
2023/04/16 07:34:45;;;;;;;54.97;37.40;;;8.70;99.90;;;;;;5039496;28;20045;-85
2023/04/16 07:37:11;;;;;;;53.42;36.25;;;8.70;99.90;;;;;;5055886;28;20476;-83
2023/04/16 07:39:37;;;;;;;55.25;38.08;;;8.80;99.90;;;;;;5055801;28;20056;-84
2023/04/16 07:42:03;;;;;;;54.83;37.53;;;8.80;99.90;;;;;;5056215;28;20131;-84
2023/04/16 07:44:29;;;;;;;55.88;36.63;;;8.90;99.90;;;;;;5056032;28;20045;-84
2023/04/16 07:46:54;;;;;;;58.20;38.50;;;9.00;99.90;;;;;;5039477;28;20053;-85
2023/04/16 07:49:20;;;;;;;56.72;37.33;;;9.10;99.90;;;;;;5056287;28;20048;-85
2023/04/16 07:51:46;;;;;;;65.85;40.65;;;9.20;99.90;;;;;;5056005;28;20077;-85
2023/04/16 07:54:12;;;;;;;54.28;37.63;;;9.30;99.90;;;;;;5039472;28;20041;-84
2023/04/16 07:56:38;;;;;;;52.88;35.47;;;9.30;99.90;;;;;;5055696;28;20056;-84
2023/04/16 07:59:03;;;;;;;53.10;36.13;;;9.50;99.90;;;;;;5055951;28;20060;-84
2023/04/16 08:01:29;;;;;;;52.30;35.53;;;9.50;99.90;;;;;;5038816;28;20045;-84
2023/04/16 08:03:56;;;;;;;52.30;35.40;;;9.60;99.90;;;;;;5057198;28;20131;-85
2023/04/16 08:06:21;;;;;;;55.42;35.53;;;9.70;99.90;;;;;;5056432;28;20128;-84
2023/04/16 08:08:47;;;;;;;50.70;33.85;;;9.80;99.90;;;;;;5065863;28;20446;-84
2023/04/16 08:11:14;;;;;;;50.72;34.10;;;9.90;99.90;;;;;;5068101;28;20056;-84
2023/04/16 08:13:42;;;;;;;52.67;34.50;;;9.80;99.90;;;;;;5050499;28;20041;-84
2023/04/16 08:16:08;;;;;;;53.00;32.45;;;9.80;99.90;;;;;;5044985;28;20057;-84
2023/04/16 08:18:33;;;;;;;49.50;32.58;;;9.80;99.90;;;;;;5067550;28;20035;-85
2023/04/16 08:21:02;;;;;;;48.22;32.25;;;9.80;99.90;;;;;;5066232;28;20080;-85
2023/04/16 08:23:28;;;;;;;48.80;32.45;;;9.90;99.90;;;;;;5070063;28;20132;-85
2023/04/16 08:25:57;;;;;;;49.67;31.13;;;9.20;99.90;;;;;;5052480;28;20056;-83
2023/04/16 08:28:25;;;;;;;46.97;29.65;;;10.00;99.90;;;;;;5051794;28;20102;-84
2023/04/16 08:30:51;;;;;;;40.80;29.63;;;9.90;99.90;;;;;;5049070;28;20048;-84
2023/04/16 08:33:17;;;;;;;45.88;30.52;;;10.00;99.90;;;;;;5043322;28;20076;-84
2023/04/16 08:35:43;;;;;;;44.72;30.17;;;10.10;99.90;;;;;;5059040;28;20122;-84
2023/04/16 08:38:08;;;;;;;43.92;30.17;;;10.20;99.90;;;;;;5043401;28;20045;-84
2023/04/16 08:40:40;;;;;;;40.38;28.65;;;10.30;99.90;;;;;;5049072;28;20045;-84
2023/04/16 08:43:12;;;;;;;43.60;28.25;;;10.50;99.90;;;;;;5063210;28;20040;-85
2023/04/16 08:45:39;;;;;;;;;;;10.70;99.90;;;;;;5059753;28;20511;-86
2023/04/16 08:48:10;;;;;;;43.85;27.50;;;10.80;99.90;;;;;;5059977;28;19992;-85
2023/04/16 08:50:37;;;;;;;42.30;26.58;;;11.00;99.90;;;;;;5025966;28;20049;-85
2023/04/16 08:53:08;;;;;;;37.63;26.80;;;10.90;99.90;;;;;;5042493;28;20559;-84
2023/04/16 08:55:38;;;;;;;39.45;26.38;;;9.80;99.90;;;;;;5056545;28;20492;-84
2023/04/16 08:58:22;;;;;;;35.88;26.05;;;11.20;99.90;;;;;;5056264;28;20110;-83
2023/04/16 09:00:48;;;;;;;36.17;25.25;;;11.20;99.90;;;;;;5056338;28;20056;-84
2023/04/16 09:03:14;;;;;;;35.17;24.58;;;11.30;99.90;;;;;;5055514;28;20047;-84
2023/04/16 09:05:41;;;;;;;35.22;24.95;;;11.10;99.90;;;;;;5038565;28;20040;-84
2023/04/16 09:08:07;;;;;;;31.05;23.63;;;11.50;99.90;;;;;;5055118;28;20095;-84
2023/04/16 09:10:34;;;;;;;31.58;23.27;;;11.60;99.90;;;;;;5058632;28;20128;-84
2023/04/16 09:13:00;;;;;;;31.30;22.02;;;11.80;99.90;;;;;;5045671;28;20052;-84
2023/04/16 09:15:26;;;;;;;33.35;22.60;;;11.80;99.90;;;;;;5057701;28;20124;-83
2023/04/16 09:17:53;;;;;;;30.15;21.33;;;11.90;99.90;;;;;;5055361;28;20053;-84
2023/04/16 09:20:19;;;;;;;29.63;21.13;;;11.90;99.90;;;;;;5055185;28;20051;-84
2023/04/16 09:22:45;;;;;;;29.48;21.55;;;11.90;99.90;;;;;;5055393;28;20044;-84
2023/04/16 09:25:12;;;;;;;29.35;21.80;;;11.90;99.90;;;;;;5054523;28;20056;-84
2023/04/16 09:27:38;;;;;;;30.63;21.42;;;11.90;99.90;;;;;;5038090;28;20041;-84
2023/04/16 09:30:21;;;;;;;28.70;20.83;;;11.90;99.90;;;;;;5037647;28;20040;-83
2023/04/16 09:32:47;;;;;;;29.00;20.73;;;11.90;99.90;;;;;;5038952;28;20048;-84
2023/04/16 09:35:14;;;;;;;29.88;21.10;;;11.90;99.90;;;;;;5054769;28;20435;-83
2023/04/16 09:37:39;;;;;;;30.67;20.65;;;11.10;99.90;;;;;;5038114;28;20111;-83
2023/04/16 09:40:08;;;;;;;32.33;20.75;;;11.90;99.90;;;;;;5037476;28;20041;-83
2023/04/16 09:42:36;;;;;;;26.77;19.48;;;12.10;99.90;;;;;;5037527;28;20053;-83
2023/04/16 09:45:02;;;;;;;29.17;20.73;;;12.10;99.90;;;;;;5053872;28;20051;-83
2023/04/16 09:47:42;;;;;;;29.55;19.95;;;11.50;99.90;;;;;;5036960;28;20052;-83
2023/04/16 09:50:09;;;;;;;28.08;19.10;;;12.30;99.90;;;;;;5036879;28;20063;-84
2023/04/16 09:52:39;;;;;;;27.58;19.90;;;12.30;99.90;;;;;;5037002;28;20056;-83
2023/04/16 09:55:05;;;;;;;29.23;20.42;;;12.40;99.90;;;;;;5053878;28;20458;-83
2023/04/16 09:57:33;;;;;;;28.20;19.92;;;12.60;99.90;;;;;;5053909;28;20396;-83
2023/04/16 10:00:05;;;;;;;26.02;19.48;;;12.50;99.90;;;;;;5053571;28;20103;-83
2023/04/16 10:02:37;;;;;;;26.25;19.83;;;12.50;99.90;;;;;;5054414;28;20079;-83
2023/04/16 10:05:03;;;;;;;27.30;19.80;;;12.60;99.90;;;;;;5036835;28;20037;-83
2023/04/16 10:07:33;;;;;;;27.05;20.05;;;12.60;99.90;;;;;;5053311;28;20143;-83
2023/04/16 10:09:59;;;;;;;33.97;24.83;;;12.70;99.90;;;;;;5052776;28;20427;-83
2023/04/16 10:12:27;;;;;;;27.30;20.38;;;12.80;99.90;;;;;;5037331;28;20047;-83
2023/04/16 10:14:53;;;;;;;27.42;20.95;;;12.90;99.90;;;;;;5037804;28;20064;-83
2023/04/16 10:17:20;;;;;;;33.80;24.30;;;13.10;99.90;;;;;;5052990;28;20053;-82
2023/04/16 10:19:46;;;;;;;30.90;20.50;;;13.20;99.90;;;;;;5052687;28;20057;-82
2023/04/16 10:22:12;;;;;;;79.03;48.75;;;13.30;99.90;;;;;;5036252;28;20051;-83
2023/04/16 10:24:39;;;;;;;110.57;67.78;;;13.30;99.90;;;;;;5052651;28;20052;-82
2023/04/16 10:27:05;;;;;;;27.25;20.05;;;13.40;99.90;;;;;;5052903;28;20056;-82
2023/04/16 10:29:32;;;;;;;42.80;29.38;;;13.50;99.90;;;;;;5019767;28;20056;-82
2023/04/16 10:31:59;;;;;;;38.35;27.05;;;13.60;99.90;;;;;;5052657;28;20059;-82
2023/04/16 10:34:25;;;;;;;33.95;24.52;;;13.60;99.90;;;;;;5052750;28;20055;-82
2023/04/16 10:36:53;;;;;;;28.83;19.90;;;13.60;99.90;;;;;;5052094;28;20400;-82
2023/04/16 10:39:23;;;;;;;61.70;39.17;;;13.60;99.90;;;;;;5052682;28;20447;-82
2023/04/16 10:41:50;;;;;;;61.70;40.17;;;13.70;99.90;;;;;;5052631;28;20049;-82
2023/04/16 10:44:18;;;;;;;54.58;35.17;;;13.60;99.90;;;;;;5035985;28;20049;-83
2023/04/16 10:46:49;;;;;;;53.67;43.58;;;13.70;99.90;;;;;;5036146;28;20083;-82
2023/04/16 10:49:17;;;;;;;33.55;27.52;;;13.80;99.90;;;;;;5052563;28;20123;-82
2023/04/16 10:51:55;;;;;;;29.45;20.30;;;13.80;99.90;;;;;;5051768;28;20102;-82
2023/04/16 10:54:29;;;;;;;26.17;19.77;;;13.70;99.90;;;;;;5052407;28;20053;-81
2023/04/16 10:56:57;;;;;;;26.38;19.33;;;13.70;99.90;;;;;;5052492;28;20472;-82
2023/04/16 10:59:24;;;;;;;27.55;20.67;;;13.80;99.90;;;;;;5052374;28;20071;-84
2023/04/16 11:01:55;;;;;;;29.60;21.65;;;13.80;99.90;;;;;;5052227;28;20131;-83
2023/04/16 11:04:23;;;;;;;29.65;20.20;;;13.90;99.90;;;;;;5035300;28;20056;-83
2023/04/16 11:07:09;;;;;;;27.77;19.85;;;13.80;99.90;;;;;;5052273;28;20404;-83
2023/04/16 11:10:00;;;;;;;27.58;20.27;;;13.80;99.90;;;;;;5052335;28;20381;-82
2023/04/16 11:12:46;;;;;;;28.65;20.40;;;13.90;99.90;;;;;;5052323;28;20049;-82
2023/04/16 11:15:16;;;;;;;29.90;20.15;;;13.90;99.90;;;;;;5052649;28;20052;-83
2023/04/16 11:17:47;;;;;;;27.38;20.45;;;14.00;99.90;;;;;;5052159;28;20065;-83
2023/04/16 11:20:18;;;;;;;28.83;19.25;;;14.20;99.90;;;;;;5035826;28;20045;-83
2023/04/16 11:22:46;;;;;;;26.23;19.67;;;14.40;99.90;;;;;;5052253;28;20049;-83
2023/04/16 11:25:12;;;;;;;24.02;18.85;;;14.40;99.90;;;;;;5052105;28;20134;-83
2023/04/16 11:27:40;;;;;;;25.08;18.52;;;14.40;99.90;;;;;;5052227;28;20088;-82
2023/04/16 11:30:10;;;;;;;24.60;19.77;;;14.50;99.90;;;;;;5019093;28;20481;-82
2023/04/16 11:32:37;;;;;;;25.75;18.58;;;14.50;99.90;;;;;;5052089;28;20151;-83
2023/04/16 11:35:17;;;;;;;24.23;18.38;;;14.60;99.90;;;;;;5051784;28;20087;-83
2023/04/16 11:37:44;;;;;;;25.92;18.45;;;14.50;99.90;;;;;;5052021;28;20071;-83
2023/04/16 11:40:10;;;;;;;25.15;18.00;;;14.50;99.90;;;;;;5051596;28;20088;-83
2023/04/16 11:42:40;;;;;;;23.20;18.25;;;14.60;99.90;;;;;;5051911;28;20045;-83
2023/04/16 11:45:08;;;;;;;24.83;17.90;;;14.70;99.90;;;;;;5051845;28;20400;-83
2023/04/16 11:47:51;;;;;;;24.70;18.95;;;14.90;99.90;;;;;;5052451;28;20081;-82
2023/04/16 11:50:24;;;;;;;25.58;18.50;;;14.70;99.90;;;;;;5019455;28;20045;-82
2023/04/16 11:52:55;;;;;;;33.97;25.92;;;14.60;99.90;;;;;;5052585;28;20041;-81
2023/04/16 11:55:22;;;;;;;23.40;18.83;;;14.50;99.90;;;;;;5052364;28;20045;-82
2023/04/16 11:57:48;;;;;;;29.98;24.67;;;14.60;99.90;;;;;;5035258;28;20056;-82
2023/04/16 12:00:14;;;;;;;27.95;22.33;;;14.70;99.90;;;;;;5035040;28;20098;-83
2023/04/16 12:02:42;;;;;;;26.90;21.45;;;14.90;99.90;;;;;;5051312;28;20045;-83
2023/04/16 12:05:30;;;;;;;27.85;18.73;;;14.90;99.90;;;;;;5054166;28;20093;-83
2023/04/16 12:07:58;;;;;;;24.10;18.50;;;14.80;99.90;;;;;;5038472;28;20045;-83
2023/04/16 12:10:27;;;;;;;30.70;22.98;;;14.90;99.90;;;;;;5055408;28;20106;-83
2023/04/16 12:12:53;;;;;;;36.42;27.90;;;14.80;99.90;;;;;;5055134;28;20399;-83
2023/04/16 12:15:19;;;;;;;26.25;18.90;;;14.60;99.90;;;;;;5055246;28;20139;-83
2023/04/16 12:17:45;;;;;;;21.98;17.20;;;14.50;99.90;;;;;;5038181;28;20060;-83
2023/04/16 12:20:16;;;;;;;30.02;22.42;;;14.50;99.90;;;;;;5038425;28;20052;-83
2023/04/16 12:22:48;;;;;;;38.45;29.20;;;14.70;99.90;;;;;;5038797;28;20052;-84
2023/04/16 12:25:15;;;;;;;25.35;17.23;;;14.80;99.90;;;;;;5038448;28;20049;-83
2023/04/16 12:27:50;;;;;;;25.00;18.52;;;14.90;99.90;;;;;;5056341;28;20056;-83
2023/04/16 12:30:21;;;;;;;34.75;26.30;;;14.90;99.90;;;;;;5055061;28;20567;-83
2023/04/16 12:32:49;;;;;;;36.10;28.13;;;14.70;99.90;;;;;;5055157;28;20087;-84
2023/04/16 12:35:32;;;;;;;26.73;19.67;;;14.80;99.90;;;;;;5040146;28;20103;-86
2023/04/16 12:37:59;;;;;;;31.75;25.45;;;14.90;99.90;;;;;;5038597;28;20060;-84